createdAt,value
2022-08-25T00:01:27.005Z,19.73
2022-08-25T00:03:57.122Z,20.83
2022-08-25T00:06:24.862Z,20.90
2022-08-25T00:08:52.319Z,21.58
2022-08-25T00:11:22.383Z,18.90
2022-08-25T00:13:52.383Z,19.38
2022-08-25T00:16:22.705Z,18.88
2022-08-25T00:18:52.816Z,20.63
2022-08-25T00:21:20.319Z,18.98
2022-08-25T00:23:48.469Z,20.30
2022-08-25T00:26:16.666Z,18.88
2022-08-25T00:28:44.629Z,19.40
2022-08-25T00:31:13.467Z,19.75
2022-08-25T00:33:43.417Z,19.15
2022-08-25T00:36:10.781Z,19.52
2022-08-25T00:38:38.385Z,20.90
2022-08-25T00:41:06.163Z,19.45
2022-08-25T00:43:35.912Z,17.35
2022-08-25T00:46:03.269Z,17.85
2022-08-25T00:48:30.821Z,19.25
2022-08-25T00:51:00.390Z,18.95
2022-08-25T00:53:28.319Z,19.17
2022-08-25T00:55:56.042Z,19.48
2022-08-25T00:58:26.608Z,19.77
2022-08-25T01:00:56.366Z,18.55
2022-08-25T01:03:31.618Z,18.38
2022-08-25T01:06:03.393Z,20.83
2022-08-25T01:08:32.727Z,19.88
2022-08-25T01:11:04.440Z,19.23
2022-08-25T01:13:35.435Z,19.85
2022-08-25T01:16:03.662Z,21.20
2022-08-25T01:18:43.995Z,19.75
2022-08-25T01:21:13.121Z,19.10
2022-08-25T01:23:40.509Z,18.40
2022-08-25T01:26:09.882Z,17.80
2022-08-25T01:28:37.966Z,18.70
2022-08-25T01:31:05.467Z,18.33
2022-08-25T01:33:51.985Z,19.85
2022-08-25T01:36:21.516Z,19.75
2022-08-25T01:38:49.031Z,19.13
2022-08-25T01:41:17.582Z,19.70
2022-08-25T01:43:44.776Z,18.13
2022-08-25T01:46:12.063Z,19.25
2022-08-25T01:48:39.522Z,17.85
2022-08-25T01:51:06.729Z,18.80
2022-08-25T01:53:35.453Z,17.83
2022-08-25T01:56:09.709Z,19.27
2022-08-25T01:58:40.337Z,20.60
2022-08-25T02:01:09.858Z,21.25
2022-08-25T02:03:38.594Z,17.80
2022-08-25T02:06:12.209Z,19.42
2022-08-25T02:08:41.358Z,19.02
2022-08-25T02:11:12.002Z,19.67
2022-08-25T02:13:39.953Z,19.80
2022-08-25T02:16:10.070Z,19.90
2022-08-25T02:18:37.481Z,17.63
2022-08-25T02:21:05.203Z,20.27
2022-08-25T02:23:32.500Z,18.05
2022-08-25T02:26:01.186Z,18.70
2022-08-25T02:28:28.671Z,17.88
2022-08-25T02:31:01.397Z,17.50
2022-08-25T02:33:29.390Z,17.58
2022-08-25T02:35:58.436Z,17.63
2022-08-25T02:38:25.635Z,18.15
2022-08-25T02:40:52.835Z,16.48
2022-08-25T02:43:22.136Z,17.00
2022-08-25T02:45:49.398Z,18.88
2022-08-25T02:48:38.647Z,17.60
2022-08-25T02:51:08.305Z,17.55
2022-08-25T02:53:37.161Z,18.77
2022-08-25T02:56:04.607Z,18.90
2022-08-25T02:58:33.551Z,19.73
2022-08-25T03:01:00.849Z,19.88
2022-08-25T03:03:28.274Z,19.42
2022-08-25T03:05:55.955Z,19.95
2022-08-25T03:08:23.435Z,18.40
2022-08-25T03:10:52.059Z,19.95
2022-08-25T03:13:19.678Z,18.75
2022-08-25T03:15:49.294Z,19.70
2022-08-25T03:18:16.599Z,18.63
2022-08-25T03:20:44.948Z,19.98
2022-08-25T03:23:12.514Z,19.95
2022-08-25T03:25:41.030Z,20.42
2022-08-25T03:28:09.106Z,21.15
2022-08-25T03:30:36.380Z,19.30
2022-08-25T03:33:05.116Z,19.02
2022-08-25T03:35:32.709Z,19.25
2022-08-25T03:38:01.056Z,18.98
2022-08-25T03:40:28.971Z,19.33
2022-08-25T03:42:56.545Z,20.88
2022-08-25T03:45:25.382Z,22.08
2022-08-25T03:47:53.571Z,19.65
2022-08-25T03:50:23.572Z,17.17
2022-08-25T03:52:52.766Z,17.73
2022-08-25T03:55:22.118Z,20.30
2022-08-25T03:57:50.307Z,18.63
2022-08-25T04:00:17.796Z,18.08
2022-08-25T04:02:45.087Z,21.77
2022-08-25T04:05:13.258Z,19.65
2022-08-25T04:07:44.748Z,18.85
2022-08-25T04:10:13.103Z,19.65
2022-08-25T04:12:40.548Z,17.40
2022-08-25T04:15:08.727Z,16.65
2022-08-25T04:17:38.021Z,17.70
2022-08-25T04:20:07.452Z,14.40
2022-08-25T04:22:36.817Z,16.70
2022-08-25T04:25:06.985Z,17.58
2022-08-25T04:27:34.675Z,20.48
2022-08-25T04:30:01.894Z,19.25
2022-08-25T04:32:30.510Z,17.58
2022-08-25T04:34:58.051Z,16.55
2022-08-25T04:37:25.258Z,19.00
2022-08-25T04:39:52.881Z,18.27
2022-08-25T04:42:22.216Z,22.38
2022-08-25T04:44:49.429Z,20.08
2022-08-25T04:47:16.623Z,21.33
2022-08-25T04:49:44.156Z,22.08
2022-08-25T04:52:14.505Z,22.20
2022-08-25T04:54:42.064Z,21.30
2022-08-25T04:57:09.642Z,21.48
2022-08-25T04:59:38.549Z,20.38
2022-08-25T05:02:06.315Z,22.05
2022-08-25T05:04:35.366Z,21.35
2022-08-25T05:07:03.728Z,21.55
2022-08-25T05:09:32.480Z,20.67
2022-08-25T05:12:02.253Z,24.42
2022-08-25T05:14:30.316Z,22.83
2022-08-25T05:17:01.378Z,22.25
2022-08-25T05:19:29.008Z,21.42
2022-08-25T05:21:57.759Z,20.77
2022-08-25T05:24:25.545Z,21.25
2022-08-25T05:26:53.113Z,20.60
2022-08-25T05:29:20.370Z,23.17
2022-08-25T05:31:50.604Z,23.02
2022-08-25T05:34:20.505Z,23.50
2022-08-25T05:36:48.694Z,21.25
2022-08-25T05:39:16.071Z,21.80
2022-08-25T05:41:44.158Z,22.98
2022-08-25T05:44:19.118Z,23.98
2022-08-25T05:46:49.769Z,20.67
2022-08-25T05:49:17.310Z,22.73
2022-08-25T05:51:48.998Z,20.90
2022-08-25T05:54:16.620Z,21.13
2022-08-25T05:56:44.039Z,22.35
2022-08-25T05:59:11.390Z,23.88
2022-08-25T06:01:39.102Z,21.77
2022-08-25T06:04:06.537Z,23.23
2022-08-25T06:06:33.862Z,23.17
2022-08-25T06:09:04.204Z,23.33
2022-08-25T06:11:31.429Z,23.33
2022-08-25T06:13:58.712Z,25.08
2022-08-25T06:16:26.437Z,23.35
2022-08-25T06:18:56.774Z,24.58
2022-08-25T06:21:24.212Z,22.70
2022-08-25T06:23:51.884Z,23.42
2022-08-25T06:26:25.075Z,23.73
2022-08-25T06:28:53.600Z,22.77
2022-08-25T06:31:21.749Z,22.55
2022-08-25T06:33:51.951Z,22.27
2022-08-25T06:36:20.285Z,22.42
2022-08-25T06:38:48.523Z,25.65
2022-08-25T06:41:18.482Z,24.33
2022-08-25T06:43:50.819Z,25.95
2022-08-25T06:46:22.229Z,25.25
2022-08-25T06:49:03.796Z,23.75
2022-08-25T06:51:31.029Z,23.48
2022-08-25T06:54:00.965Z,23.15
2022-08-25T06:56:28.497Z,24.17
2022-08-25T06:58:59.217Z,22.88
2022-08-25T07:01:27.372Z,24.60
2022-08-25T07:03:58.345Z,22.50
2022-08-25T07:06:27.765Z,24.13
2022-08-25T07:08:55.437Z,24.40
2022-08-25T07:11:23.128Z,23.33
2022-08-25T07:13:51.292Z,25.40
2022-08-25T07:16:21.476Z,25.55
2022-08-25T07:18:49.259Z,23.83
2022-08-25T07:21:17.414Z,24.08
2022-08-25T07:23:47.821Z,26.15
2022-08-25T07:29:07.785Z,23.85
2022-08-25T07:31:37.552Z,22.67
2022-08-25T07:34:05.233Z,24.25
2022-08-25T07:36:33.956Z,24.73
2022-08-25T07:39:01.967Z,25.30
2022-08-25T07:41:29.365Z,22.90
2022-08-25T07:43:56.788Z,23.85
2022-08-25T07:46:24.424Z,24.50
2022-08-25T07:48:53.586Z,22.20
2022-08-25T07:51:21.212Z,23.35
2022-08-25T07:53:50.313Z,23.50
2022-08-25T07:56:17.950Z,21.77
2022-08-25T07:58:46.660Z,25.52
2022-08-25T08:01:15.381Z,24.33
2022-08-25T08:03:50.347Z,23.98
2022-08-25T08:06:23.164Z,23.90
2022-08-25T08:08:54.617Z,23.83
2022-08-25T08:11:27.455Z,25.40
2022-08-25T08:13:56.177Z,25.08
2022-08-25T08:16:27.358Z,27.20
2022-08-25T08:21:26.974Z,25.67
2022-08-25T08:23:58.888Z,27.13
2022-08-25T08:26:36.485Z,29.92
2022-08-25T08:29:14.796Z,26.83
2022-08-25T08:31:48.814Z,23.02
2022-08-25T08:34:17.311Z,26.40
2022-08-25T08:36:46.063Z,25.90
2022-08-25T08:39:13.341Z,24.40
2022-08-25T08:42:11.535Z,26.08
2022-08-25T08:44:54.352Z,26.52
2022-08-25T08:47:32.098Z,25.90
2022-08-25T08:50:05.729Z,25.85
2022-08-25T08:52:42.916Z,26.58
2022-08-25T08:55:15.981Z,23.27
2022-08-25T09:00:20.299Z,26.42
2022-08-25T09:02:54.773Z,26.73
2022-08-25T09:05:27.217Z,27.27
2022-08-25T09:07:58.294Z,27.77
2022-08-25T09:10:33.643Z,29.48
2022-08-25T09:13:15.296Z,26.92
2022-08-25T09:16:00.001Z,27.27
2022-08-25T09:18:41.191Z,27.38
2022-08-25T09:21:25.038Z,26.38
2022-08-25T09:24:09.359Z,24.90
2022-08-25T09:26:47.578Z,23.98
2022-08-25T09:29:20.760Z,26.40
2022-08-25T09:31:49.108Z,25.00
2022-08-25T09:34:20.402Z,24.92
2022-08-25T09:36:47.749Z,22.95
2022-08-25T09:39:17.356Z,22.02
2022-08-25T09:41:47.508Z,21.20
2022-08-25T09:44:22.975Z,21.40
2022-08-25T09:47:00.013Z,20.88
2022-08-25T09:49:34.095Z,20.13
2022-08-25T09:52:32.252Z,19.17
2022-08-25T09:55:22.336Z,21.30
2022-08-25T09:57:56.084Z,18.60
2022-08-25T10:00:26.477Z,17.77
2022-08-25T10:03:10.106Z,19.45
2022-08-25T10:05:56.304Z,16.67
2022-08-25T10:08:29.909Z,18.05
2022-08-25T10:11:00.813Z,17.63
2022-08-25T10:13:41.046Z,17.02
2022-08-25T10:16:20.345Z,18.20
2022-08-25T10:19:06.206Z,16.70
2022-08-25T10:21:35.509Z,15.05
2022-08-25T10:24:06.837Z,15.40
2022-08-25T10:26:48.514Z,15.88
2022-08-25T10:29:29.343Z,13.90
2022-08-25T10:32:12.145Z,16.33
2022-08-25T10:34:51.667Z,15.27
2022-08-25T10:37:34.796Z,15.35
2022-08-25T10:40:12.196Z,15.05
2022-08-25T10:42:51.683Z,17.85
2022-08-25T10:45:23.191Z,18.15
2022-08-25T10:48:25.124Z,16.45
2022-08-25T10:50:56.916Z,15.45
2022-08-25T10:53:28.842Z,14.48
2022-08-25T10:59:10.051Z,15.50
2022-08-25T11:04:32.693Z,16.38
2022-08-25T11:07:08.258Z,16.77
2022-08-25T11:09:41.547Z,15.80
2022-08-25T11:12:13.892Z,18.00
2022-08-25T11:14:49.268Z,16.15
2022-08-25T11:17:20.201Z,17.85
2022-08-25T11:22:22.907Z,14.18
2022-08-25T11:25:02.046Z,15.48
2022-08-25T11:27:37.022Z,13.43
2022-08-25T11:30:10.039Z,12.63
2022-08-25T11:32:39.162Z,12.93
2022-08-25T11:35:13.300Z,14.60
2022-08-25T11:37:54.115Z,14.27
2022-08-25T11:40:41.266Z,14.90
2022-08-25T11:43:25.316Z,16.20
2022-08-25T11:46:04.083Z,14.95
2022-08-25T11:48:47.502Z,13.35
2022-08-25T11:54:18.512Z,12.68
2022-08-25T11:57:00.389Z,11.82
2022-08-25T12:00:08.199Z,9.43
2022-08-25T12:02:40.294Z,10.65
2022-08-25T12:05:32.230Z,10.80
2022-08-25T12:08:07.768Z,7.88
2022-08-25T12:10:55.997Z,7.20
2022-08-25T12:13:39.787Z,8.30
2022-08-25T12:16:08.028Z,6.10
2022-08-25T12:18:45.840Z,5.80
2022-08-25T12:21:32.092Z,5.30
2022-08-25T12:24:16.036Z,7.45
2022-08-25T12:26:52.727Z,8.23
2022-08-25T12:29:40.435Z,8.52
2022-08-25T12:32:39.493Z,5.88
2022-08-25T12:35:21.552Z,5.03
2022-08-25T12:37:58.499Z,5.80
2022-08-25T12:40:32.659Z,5.20
2022-08-25T12:43:25.149Z,4.63
2022-08-25T12:46:33.582Z,4.75
2022-08-25T12:49:02.644Z,4.75
2022-08-25T12:51:48.983Z,5.18
2022-08-25T12:54:22.726Z,4.78
2022-08-25T12:56:55.882Z,5.97
2022-08-25T12:59:31.624Z,5.85
2022-08-25T13:02:24.784Z,5.93
2022-08-25T13:05:36.269Z,5.40
2022-08-25T13:08:37.033Z,5.88
2022-08-25T13:11:11.154Z,6.38
2022-08-25T13:13:49.581Z,5.95
2022-08-25T13:16:19.915Z,6.03
2022-08-25T13:18:51.648Z,7.80
2022-08-25T13:21:23.252Z,8.30
2022-08-25T13:23:53.850Z,8.90
2022-08-25T13:26:24.077Z,7.90
2022-08-25T13:28:57.333Z,8.98
2022-08-25T13:31:25.818Z,7.18
2022-08-25T13:33:55.773Z,7.03
2022-08-25T13:36:24.241Z,6.85
2022-08-25T13:38:51.636Z,6.93
2022-08-25T13:41:23.742Z,6.68
2022-08-25T13:44:00.861Z,6.00
2022-08-25T13:46:29.950Z,6.35
2022-08-25T13:49:05.705Z,6.22
2022-08-25T13:51:36.815Z,6.03
2022-08-25T13:54:07.182Z,6.07
2022-08-25T13:56:41.043Z,6.03
2022-08-25T13:59:23.071Z,5.85
2022-08-25T14:01:52.197Z,8.07
2022-08-25T14:04:31.740Z,9.20
2022-08-25T14:07:24.617Z,8.40
2022-08-25T14:09:55.265Z,8.25
2022-08-25T14:12:33.684Z,7.93
2022-08-25T14:15:07.715Z,8.38
2022-08-25T14:17:41.471Z,6.75
2022-08-25T14:20:20.339Z,7.88
2022-08-25T14:22:58.080Z,7.97
2022-08-25T14:25:26.169Z,8.45
2022-08-25T14:28:13.536Z,8.48
2022-08-25T14:30:46.017Z,7.35
2022-08-25T14:33:15.892Z,6.63
2022-08-25T14:35:48.854Z,5.47
2022-08-25T14:38:17.033Z,6.63
2022-08-25T14:40:45.205Z,6.18
2022-08-25T14:43:12.909Z,6.18
2022-08-25T14:45:48.070Z,5.53
2022-08-25T14:48:47.464Z,5.32
2022-08-25T14:51:17.509Z,5.63
2022-08-25T14:53:45.080Z,4.97
2022-08-25T14:56:14.223Z,5.57
2022-08-25T14:58:48.305Z,5.35
2022-08-25T15:01:29.062Z,5.63
2022-08-25T15:04:03.542Z,5.10
2022-08-25T15:06:30.948Z,5.43
2022-08-25T15:08:58.540Z,5.30
2022-08-25T15:11:26.330Z,6.53
2022-08-25T15:13:54.022Z,4.75
2022-08-25T15:16:33.847Z,5.68
2022-08-25T15:19:03.510Z,6.25
2022-08-25T15:21:35.762Z,5.60
2022-08-25T15:24:03.931Z,5.30
2022-08-25T15:26:34.561Z,5.68
2022-08-25T15:29:04.248Z,5.65
2022-08-25T15:31:32.930Z,5.95
2022-08-25T15:34:01.650Z,5.20
2022-08-25T15:36:29.325Z,5.85
2022-08-25T15:38:56.541Z,5.15
2022-08-25T15:41:27.657Z,6.07
2022-08-25T15:43:55.819Z,5.38
2022-08-25T15:46:26.140Z,5.85
2022-08-25T15:51:28.882Z,5.40
2022-08-25T15:53:57.078Z,5.72
2022-08-25T15:56:28.385Z,5.20
2022-08-25T15:58:55.991Z,4.57
2022-08-25T16:01:25.022Z,6.13
2022-08-25T16:03:52.851Z,4.95
2022-08-25T16:06:22.514Z,5.05
2022-08-25T16:08:50.299Z,5.47
2022-08-25T16:11:19.240Z,5.70
2022-08-25T16:13:46.975Z,5.45
2022-08-25T16:16:16.526Z,6.32
2022-08-25T16:18:44.617Z,6.07
2022-08-25T16:21:13.887Z,5.97
2022-08-25T16:23:43.177Z,7.45
2022-08-25T16:26:13.031Z,5.32
2022-08-25T16:28:43.747Z,5.95
2022-08-25T16:31:12.419Z,5.45
2022-08-25T16:36:15.730Z,5.25
2022-08-25T16:38:49.041Z,5.38
2022-08-25T16:41:20.004Z,5.40
2022-08-25T16:43:48.122Z,5.63
2022-08-25T16:46:18.378Z,5.70
2022-08-25T16:48:46.562Z,5.53
2022-08-25T16:51:16.834Z,5.45
2022-08-25T16:53:49.019Z,5.88
2022-08-25T16:56:16.221Z,5.85
2022-08-25T16:58:43.524Z,6.03
2022-08-25T17:01:13.488Z,5.35
2022-08-25T17:03:43.844Z,6.10
2022-08-25T17:06:11.794Z,5.93
2022-08-25T17:08:39.818Z,5.63
2022-08-25T17:11:11.229Z,5.93
2022-08-25T17:16:16.381Z,5.43
2022-08-25T17:18:56.169Z,6.57
2022-08-25T17:21:27.103Z,5.68
2022-08-25T17:23:55.653Z,6.60
2022-08-25T17:26:29.314Z,5.53
2022-08-25T17:28:59.742Z,5.93
2022-08-25T17:31:29.927Z,6.57
2022-08-25T17:34:00.275Z,5.70
2022-08-25T17:36:28.192Z,6.25
2022-08-25T17:38:57.058Z,6.10
2022-08-25T17:41:29.616Z,5.75
2022-08-25T17:44:02.175Z,5.35
2022-08-25T17:46:29.560Z,5.68
2022-08-25T17:48:56.994Z,6.07
2022-08-25T17:51:26.190Z,5.13
2022-08-25T18:47:21.688Z,6.53
2022-08-25T18:49:49.522Z,7.20
2022-08-25T18:52:17.059Z,5.85
2022-08-25T18:54:47.723Z,5.80
2022-08-25T18:57:18.755Z,5.53
2022-08-25T18:59:46.151Z,6.50
2022-08-25T19:02:13.678Z,7.47
2022-08-25T19:04:43.619Z,9.63
2022-08-25T19:07:11.013Z,9.13
2022-08-25T19:09:38.337Z,9.02
2022-08-25T19:12:07.014Z,10.18
2022-08-25T19:14:39.248Z,8.65
2022-08-25T19:17:06.933Z,7.82
2022-08-25T19:19:34.294Z,8.77
2022-08-25T19:22:03.280Z,7.93
2022-08-25T19:24:31.590Z,7.95
2022-08-25T19:26:59.008Z,8.07
2022-08-25T19:29:26.376Z,7.65
2022-08-25T19:31:55.804Z,7.65
2022-08-25T19:34:28.047Z,7.78
2022-08-25T19:37:00.051Z,6.97
2022-08-25T19:39:28.719Z,6.72
2022-08-25T19:41:58.233Z,6.40
2022-08-25T19:44:27.736Z,6.35
2022-08-25T19:46:56.085Z,6.70
2022-08-25T19:49:27.934Z,7.57
2022-08-25T19:52:01.151Z,6.05
2022-08-25T19:54:32.913Z,6.45
2022-08-25T19:57:01.769Z,5.25
2022-08-25T19:59:34.255Z,5.72
2022-08-25T20:02:10.815Z,7.60
2022-08-25T20:04:38.238Z,11.00
2022-08-25T20:07:07.472Z,8.80
2022-08-25T20:09:42.101Z,7.47
2022-08-25T20:14:41.436Z,6.40
2022-08-25T20:17:14.669Z,6.07
2022-08-25T20:19:54.421Z,5.90
2022-08-25T20:22:26.391Z,6.78
2022-08-25T20:24:58.617Z,6.28
2022-08-25T20:27:28.805Z,7.15
2022-08-25T20:29:56.463Z,6.90
2022-08-25T20:32:24.186Z,7.22
2022-08-25T20:34:53.403Z,8.43
2022-08-25T20:39:52.020Z,6.80
2022-08-25T20:42:20.922Z,7.30
2022-08-25T20:44:48.762Z,7.07
2022-08-25T20:47:16.086Z,6.18
2022-08-25T20:49:43.480Z,6.90
2022-08-25T20:52:11.284Z,5.63
2022-08-25T20:54:39.291Z,5.40
2022-08-25T20:57:08.212Z,6.07
2022-08-25T20:59:37.326Z,9.10
2022-08-25T21:02:04.932Z,8.43
2022-08-25T21:04:32.505Z,7.50
2022-08-25T21:07:00.364Z,7.60
2022-08-25T21:09:28.814Z,6.65
2022-08-25T21:11:57.574Z,6.80
2022-08-25T21:14:26.193Z,6.78
2022-08-25T21:16:55.773Z,7.07
2022-08-25T21:19:26.888Z,7.60
2022-08-25T21:21:59.867Z,7.00
2022-08-25T21:24:28.537Z,7.95
2022-08-25T21:26:57.833Z,8.00
2022-08-25T21:29:28.604Z,7.85
2022-08-25T21:31:57.618Z,8.38
2022-08-25T21:34:25.404Z,8.02
2022-08-25T21:36:56.307Z,8.63
2022-08-25T21:39:23.979Z,8.40
2022-08-25T21:41:52.864Z,9.43
2022-08-25T21:44:21.259Z,8.13
2022-08-25T21:46:54.258Z,8.13
2022-08-25T21:49:24.616Z,8.07
2022-08-25T21:52:00.481Z,8.65
2022-08-25T21:54:29.236Z,8.23
2022-08-25T21:56:58.971Z,8.05
2022-08-25T21:59:28.995Z,7.68
2022-08-25T22:01:57.736Z,7.60
2022-08-25T22:04:27.784Z,6.28
2022-08-25T22:06:55.838Z,6.50
2022-08-25T22:09:25.564Z,6.50
2022-08-25T22:11:52.906Z,8.70
2022-08-25T22:14:22.407Z,7.50
2022-08-25T22:16:52.171Z,7.15
2022-08-25T22:19:19.584Z,13.30
2022-08-25T22:21:48.197Z,9.02
2022-08-25T22:24:15.939Z,8.00
2022-08-25T22:26:43.505Z,7.75
2022-08-25T22:29:16.218Z,9.45
2022-08-25T22:32:13.538Z,6.40
2022-08-25T22:34:41.461Z,6.43
2022-08-25T22:37:12.675Z,7.85
2022-08-25T22:39:44.405Z,6.20
2022-08-25T22:42:11.963Z,10.88
2022-08-25T22:44:39.910Z,9.25
2022-08-25T22:47:07.467Z,7.45
2022-08-25T22:49:35.555Z,8.05
2022-08-25T22:52:03.250Z,9.07
2022-08-25T22:54:31.966Z,6.60
2022-08-25T22:57:04.587Z,6.13
2022-08-25T22:59:34.310Z,5.07
2022-08-25T23:02:01.841Z,7.55
2022-08-25T23:04:29.652Z,8.88
2022-08-25T23:06:56.950Z,7.60
2022-08-25T23:09:24.803Z,7.28
2022-08-25T23:11:53.526Z,8.77
2022-08-25T23:14:21.629Z,5.60
2022-08-25T23:16:49.783Z,5.60
2022-08-25T23:19:17.961Z,4.70
2022-08-25T23:21:45.770Z,3.72
2022-08-25T23:24:14.547Z,9.57
2022-08-25T23:26:59.364Z,10.57
2022-08-25T23:29:27.780Z,13.68
2022-08-25T23:31:55.450Z,10.30
2022-08-25T23:34:23.305Z,11.65
2022-08-25T23:36:51.756Z,10.73
2022-08-25T23:39:19.020Z,10.02
2022-08-25T23:41:49.559Z,9.63
2022-08-25T23:44:19.075Z,8.05
2022-08-25T23:46:47.069Z,9.70
2022-08-25T23:49:18.520Z,8.52
2022-08-25T23:51:47.572Z,9.88
2022-08-25T23:54:15.992Z,8.55
2022-08-25T23:56:51.747Z,6.55
2022-08-25T23:59:24.318Z,6.35
